Time;durP1;ratioP1;P1;durP2;ratioP2;P2;SDS_P1;SDS_P2;PMS_P1;PMS_P2;Temp;Humidity;BMP_temperature;BMP_pressure;BME280_temperature;BME280_humidity;BME280_pressure;Samples;Min_cycle;Max_cycle;Signal;HPM_P1;HPM_P2
2023/01/29 00:00:08;;;;;;;16.35;8.48;;;2.60;93.10;;;;;;5037621;28;20220;-74
2023/01/29 00:02:54;;;;;;;12.35;8.70;;;2.60;93.10;;;;;;5037273;28;20679;-75
2023/01/29 00:05:39;;;;;;;8.88;7.97;;;2.70;92.30;;;;;;5037674;28;20596;-74
2023/01/29 00:08:26;;;;;;;8.57;7.50;;;2.70;91.80;;;;;;5039189;28;20595;-74
2023/01/29 00:11:11;;;;;;;12.95;9.05;;;2.70;91.70;;;;;;5038491;28;20293;-74
2023/01/29 00:13:57;;;;;;;10.27;7.15;;;2.70;91.80;;;;;;5037298;28;20821;-75
2023/01/29 00:16:44;;;;;;;10.07;7.60;;;2.80;91.80;;;;;;5035282;28;20225;-75
2023/01/29 00:19:30;;;;;;;11.35;8.50;;;2.70;91.60;;;;;;5031526;28;20220;-75
2023/01/29 00:22:16;;;;;;;8.80;6.78;;;2.80;91.60;;;;;;5037415;28;20208;-74
2023/01/29 00:25:01;;;;;;;8.77;6.97;;;2.70;91.80;;;;;;5039256;28;20236;-75
2023/01/29 00:27:47;;;;;;;8.65;7.75;;;2.70;92.10;;;;;;5038360;28;20213;-75
2023/01/29 00:30:33;;;;;;;7.10;6.40;;;2.70;91.30;;;;;;5041724;28;20201;-74
2023/01/29 00:33:20;;;;;;;9.45;7.35;;;2.60;88.20;;;;;;5045625;28;20210;-75
2023/01/29 00:36:08;;;;;;;8.15;6.75;;;2.40;88.60;;;;;;5041939;28;20237;-75
2023/01/29 00:38:58;;;;;;;8.57;7.20;;;2.30;90.40;;;;;;5045736;28;20201;-74
2023/01/29 00:44:59;;;;;;;9.35;8.35;;;2.40;90.40;;;;;;5037357;28;20244;-74
2023/01/29 00:47:44;;;;;;;9.80;8.68;;;2.50;88.50;;;;;;5039605;28;20208;-74
2023/01/29 00:50:32;;;;;;;10.95;7.95;;;2.50;88.40;;;;;;5036371;28;20196;-75
2023/01/29 00:53:18;;;;;;;8.60;7.53;;;2.40;88.80;;;;;;5041496;28;20230;-74
2023/01/29 00:56:04;;;;;;;10.05;6.95;;;2.40;88.50;;;;;;5041917;28;20592;-75
2023/01/29 00:58:50;;;;;;;8.32;7.30;;;2.40;87.50;;;;;;5036799;28;20267;-74
2023/01/29 01:04:43;;;;;;;7.45;6.57;;;2.50;89.20;;;;;;4994277;28;20283;-74
2023/01/29 01:07:31;;;;;;;8.63;7.65;;;2.50;88.50;;;;;;5040252;28;20197;-74
2023/01/29 01:10:21;;;;;;;11.35;6.95;;;2.40;89.70;;;;;;5036905;28;20207;-75
2023/01/29 01:13:08;;;;;;;10.95;6.75;;;2.50;88.80;;;;;;5045111;28;20232;-75
2023/01/29 01:15:53;;;;;;;9.52;8.02;;;2.50;90.70;;;;;;5037171;28;20295;-75
2023/01/29 01:18:39;;;;;;;9.77;8.60;;;2.50;88.50;;;;;;5036955;28;20204;-75
2023/01/29 01:21:25;;;;;;;11.88;8.25;;;2.50;87.90;;;;;;5038613;28;20272;-75
2023/01/29 01:24:12;;;;;;;9.45;8.13;;;2.40;90.00;;;;;;5038924;28;20205;-75
2023/01/29 01:26:58;;;;;;;11.57;8.25;;;2.50;88.50;;;;;;5042246;28;20205;-75
2023/01/29 01:29:43;;;;;;;12.32;9.13;;;2.50;88.50;;;;;;5038536;28;20208;-74
2023/01/29 01:32:29;;;;;;;9.65;7.65;;;2.50;88.50;;;;;;5042631;28;20206;-75
2023/01/29 01:35:15;;;;;;;9.68;8.25;;;2.50;86.00;;;;;;5037677;28;20233;-75
2023/01/29 01:38:00;;;;;;;8.80;7.57;;;2.50;86.30;;;;;;5037582;28;20603;-74
2023/01/29 01:40:47;;;;;;;15.05;9.35;;;2.40;86.80;;;;;;5040602;28;20224;-75
2023/01/29 01:43:48;;;;;;;10.98;8.55;;;2.50;87.00;;;;;;5041225;28;20205;-75
2023/01/29 01:46:37;;;;;;;12.20;8.50;;;2.60;86.20;;;;;;5042576;28;20339;-74
2023/01/29 01:49:23;;;;;;;10.48;8.10;;;2.50;85.40;;;;;;5036941;28;20697;-75
2023/01/29 01:52:11;;;;;;;10.07;8.10;;;2.60;85.60;;;;;;5044674;28;20286;-75
2023/01/29 01:54:57;;;;;;;11.65;8.70;;;2.50;85.40;;;;;;5042690;28;20709;-75
2023/01/29 01:57:47;;;;;;;11.40;7.97;;;2.40;84.50;;;;;;5037168;28;20253;-75
2023/01/29 02:00:34;;;;;;;11.20;8.73;;;2.40;83.10;;;;;;5038119;28;20201;-74
2023/01/29 02:09:35;;;;;;;11.93;8.02;;;2.40;85.00;;;;;;5039151;28;20684;-75
2023/01/29 02:12:21;;;;;;;10.52;8.38;;;2.50;83.90;;;;;;5043893;28;20213;-75
2023/01/29 02:15:10;;;;;;;10.43;9.05;;;2.40;85.40;;;;;;5039969;28;20759;-75
2023/01/29 02:17:55;;;;;;;11.93;8.60;;;2.40;85.50;;;;;;5035237;28;20435;-75
2023/01/29 02:20:43;;;;;;;11.05;8.15;;;2.40;85.20;;;;;;5038463;28;20205;-75
2023/01/29 02:24:20;;;;;;;10.20;7.50;;;2.20;84.50;;;;;;5036479;28;20570;-75
2023/01/29 02:27:10;;;;;;;13.25;8.18;;;2.10;85.90;;;;;;4959319;28;20211;-75
2023/01/29 02:30:03;;;;;;;11.63;8.75;;;2.10;85.80;;;;;;4957255;28;20202;-75
2023/01/29 02:32:57;;;;;;;10.88;8.68;;;2.20;87.00;;;;;;5037629;28;20341;-75
2023/01/29 02:35:51;;;;;;;16.00;7.72;;;2.10;86.20;;;;;;5034959;28;20232;-75
2023/01/29 02:38:43;;;;;;;11.32;9.50;;;2.20;86.60;;;;;;5036788;28;20208;-75
2023/01/29 02:41:35;;;;;;;20.50;10.25;;;2.30;87.00;;;;;;5044598;28;20586;-74
2023/01/29 02:44:26;;;;;;;14.57;8.93;;;2.30;86.80;;;;;;5038278;28;20524;-74
2023/01/29 02:47:18;;;;;;;11.57;9.40;;;2.20;87.80;;;;;;5034133;28;20819;-74
2023/01/29 02:50:08;;;;;;;15.32;10.35;;;2.10;85.40;;;;;;5038977;28;20227;-75
2023/01/29 02:53:01;;;;;;;13.88;9.32;;;2.00;87.50;;;;;;5035375;28;20697;-75
2023/01/29 02:55:51;;;;;;;9.35;7.53;;;2.00;88.10;;;;;;5035831;28;20222;-75
2023/01/29 02:58:42;;;;;;;20.92;7.97;;;2.00;87.80;;;;;;5036687;28;20445;-75
2023/01/29 03:01:34;;;;;;;11.32;8.65;;;2.00;88.10;;;;;;5035890;28;20793;-74
2023/01/29 03:04:29;;;;;;;12.35;9.07;;;2.10;88.20;;;;;;5041708;28;20208;-75
2023/01/29 03:07:39;;;;;;;13.88;9.30;;;2.20;88.30;;;;;;5037785;28;20221;-74
2023/01/29 03:10:29;;;;;;;12.00;9.25;;;2.20;89.10;;;;;;5037562;28;20205;-75
2023/01/29 03:13:21;;;;;;;13.02;9.77;;;2.10;90.50;;;;;;5037242;28;20197;-75
2023/01/29 03:16:14;;;;;;;12.65;9.35;;;2.10;90.50;;;;;;5036694;28;20222;-75
2023/01/29 03:19:07;;;;;;;12.70;9.95;;;2.00;90.20;;;;;;5037332;28;20201;-75
2023/01/29 03:21:59;;;;;;;11.88;9.70;;;2.00;90.70;;;;;;5036218;28;20213;-74
2023/01/29 03:34:17;;;;;;;10.52;8.20;;;1.50;92.70;;;;;;5040685;28;20209;-75
2023/01/29 03:37:08;;;;;;;11.50;8.63;;;1.30;94.30;;;;;;5034804;28;20715;-74
2023/01/29 03:39:54;;;;;;;13.63;10.43;;;1.40;94.70;;;;;;5040415;28;20208;-74
2023/01/29 03:42:55;;;;;;;12.40;9.55;;;1.40;94.80;;;;;;5039433;28;20571;-74
2023/01/29 03:45:57;;;;;;;11.73;9.20;;;1.40;94.80;;;;;;5034923;28;20251;-74
2023/01/29 03:48:50;;;;;;;10.93;8.85;;;1.60;93.90;;;;;;5040530;28;20255;-74
2023/01/29 03:51:41;;;;;;;10.50;8.57;;;1.70;93.40;;;;;;5040272;28;20216;-74
2023/01/29 03:54:39;;;;;;;13.15;10.45;;;1.70;93.40;;;;;;5037031;28;20250;-74
2023/01/29 03:57:31;;;;;;;12.55;9.10;;;1.80;94.10;;;;;;5035102;28;20232;-75
2023/01/29 04:00:21;;;;;;;10.98;8.60;;;1.70;93.80;;;;;;5041314;28;20209;-75
2023/01/29 04:03:12;;;;;;;12.07;9.43;;;1.70;93.70;;;;;;5044633;28;20681;-75
2023/01/29 04:06:08;;;;;;;14.95;9.80;;;1.60;94.20;;;;;;5041633;28;20343;-75
2023/01/29 04:08:59;;;;;;;16.38;9.07;;;1.60;94.60;;;;;;5040275;28;20213;-75
2023/01/29 04:11:50;;;;;;;11.85;9.63;;;1.70;94.60;;;;;;5043862;28;20282;-74
2023/01/29 04:14:36;;;;;;;19.23;9.57;;;1.80;94.70;;;;;;5041499;28;20228;-74
2023/01/29 04:17:28;;;;;;;15.00;10.85;;;1.90;94.20;;;;;;5037030;28;20694;-74
2023/01/29 04:20:14;;;;;;;13.50;9.35;;;1.90;93.70;;;;;;5043177;28;20205;-75
2023/01/29 04:23:00;;;;;;;11.93;9.07;;;1.80;94.00;;;;;;5041325;28;20284;-75
2023/01/29 04:25:52;;;;;;;15.15;9.60;;;1.80;94.60;;;;;;5044779;28;20612;-74
2023/01/29 04:28:53;;;;;;;13.65;9.30;;;1.90;94.80;;;;;;5045115;28;20234;-75
2023/01/29 04:31:45;;;;;;;11.20;8.63;;;1.90;94.80;;;;;;5046015;28;20575;-74
2023/01/29 04:34:40;;;;;;;11.70;9.40;;;1.90;94.40;;;;;;5042155;28;20201;-75
2023/01/29 04:37:34;;;;;;;15.77;10.10;;;1.90;93.90;;;;;;5039620;28;20267;-74
2023/01/29 04:40:25;;;;;;;16.63;9.32;;;2.00;93.70;;;;;;5040965;28;20625;-75
2023/01/29 04:43:20;;;;;;;11.57;9.32;;;2.00;92.70;;;;;;5042782;28;20686;-74
2023/01/29 04:46:16;;;;;;;10.43;9.07;;;1.90;92.90;;;;;;5037063;28;20349;-74
2023/01/29 04:49:14;;;;;;;11.30;9.43;;;2.00;92.90;;;;;;5045291;28;20220;-74
2023/01/29 04:52:06;;;;;;;13.35;9.27;;;2.00;92.40;;;;;;5039498;28;20209;-74
2023/01/29 04:55:00;;;;;;;10.77;8.90;;;2.00;92.00;;;;;;5046468;28;20353;-75
2023/01/29 04:57:50;;;;;;;10.55;8.75;;;2.00;92.20;;;;;;5039391;28;20247;-75
2023/01/29 05:00:40;;;;;;;9.43;7.97;;;1.90;92.40;;;;;;5047657;28;20213;-75
2023/01/29 05:03:28;;;;;;;13.38;9.30;;;1.80;93.00;;;;;;5047370;28;20201;-73
2023/01/29 05:06:15;;;;;;;12.55;8.80;;;1.50;93.70;;;;;;5037941;28;20582;-75
2023/01/29 05:09:02;;;;;;;11.85;9.15;;;1.30;94.70;;;;;;5043355;28;20209;-74
2023/01/29 05:11:49;;;;;;;16.63;9.75;;;1.40;95.20;;;;;;5042372;28;20201;-75
2023/01/29 05:14:35;;;;;;;10.38;8.68;;;1.50;95.40;;;;;;5042957;28;20787;-74
2023/01/29 05:17:21;;;;;;;12.23;9.57;;;1.30;95.80;;;;;;5039295;28;20224;-74
2023/01/29 05:20:12;;;;;;;15.40;10.52;;;1.10;97.40;;;;;;5037351;28;20301;-74
2023/01/29 05:22:58;;;;;;;12.93;10.43;;;1.10;97.00;;;;;;5038784;28;20271;-75
2023/01/29 05:25:44;;;;;;;14.65;10.73;;;1.00;97.90;;;;;;5040167;28;20225;-74
2023/01/29 05:28:28;;;;;;;11.60;8.93;;;0.80;97.80;;;;;;5045239;28;20255;-74
2023/01/29 05:31:14;;;;;;;14.68;10.77;;;0.90;97.90;;;;;;5041233;28;20264;-75
2023/01/29 05:34:00;;;;;;;16.63;10.65;;;0.90;98.00;;;;;;5045833;28;20404;-74
2023/01/29 05:36:47;;;;;;;13.63;10.18;;;0.90;99.00;;;;;;5054406;22;20299;-76
2023/01/29 05:39:32;;;;;;;12.38;8.68;;;1.00;99.90;;;;;;5047830;28;20575;-76
2023/01/29 05:42:18;;;;;;;11.48;9.00;;;1.20;99.20;;;;;;5047613;28;20283;-76
2023/01/29 05:45:04;;;;;;;11.90;9.25;;;1.30;99.30;;;;;;5039299;28;20229;-76
2023/01/29 05:47:50;;;;;;;12.23;9.52;;;1.40;98.10;;;;;;5021367;28;20583;-76
2023/01/29 05:50:37;;;;;;;13.30;9.60;;;1.60;97.20;;;;;;5023044;28;20256;-76
2023/01/29 05:53:24;;;;;;;16.45;10.30;;;1.60;96.60;;;;;;5029562;28;20690;-76
2023/01/29 05:56:09;;;;;;;13.10;10.50;;;1.60;96.30;;;;;;5024567;28;20241;-76
2023/01/29 05:58:55;;;;;;;15.27;9.32;;;1.60;95.80;;;;;;5026961;28;20221;-76
2023/01/29 06:01:40;;;;;;;16.00;9.55;;;1.70;95.40;;;;;;5025305;28;20788;-76
2023/01/29 06:04:26;;;;;;;12.75;10.15;;;1.70;95.00;;;;;;5022056;28;20202;-76
2023/01/29 06:07:12;;;;;;;13.05;9.95;;;1.80;95.60;;;;;;5027718;28;20274;-76
2023/01/29 06:09:59;;;;;;;10.45;9.10;;;1.80;95.50;;;;;;5027496;28;20737;-76
2023/01/29 06:12:45;;;;;;;12.43;9.30;;;1.80;95.10;;;;;;5021471;28;20213;-76
2023/01/29 06:15:30;;;;;;;14.75;9.70;;;1.70;95.70;;;;;;5013436;28;20248;-76
2023/01/29 06:18:16;;;;;;;12.85;9.55;;;1.50;96.40;;;;;;5024155;28;20295;-76
2023/01/29 06:21:02;;;;;;;12.95;9.70;;;1.40;96.70;;;;;;5026753;28;20218;-76
2023/01/29 06:23:48;;;;;;;13.23;9.35;;;1.30;97.60;;;;;;5023277;28;20288;-76
2023/01/29 06:26:35;;;;;;;14.18;9.45;;;1.40;97.10;;;;;;5023728;28;20222;-76
2023/01/29 06:29:21;;;;;;;12.48;9.30;;;1.40;97.40;;;;;;5021075;28;20715;-76
2023/01/29 06:32:06;;;;;;;15.32;10.40;;;1.50;96.90;;;;;;5018530;28;20675;-76
2023/01/29 06:34:52;;;;;;;13.20;9.35;;;1.50;96.40;;;;;;5018967;28;20275;-76
2023/01/29 06:37:38;;;;;;;11.13;9.15;;;1.60;96.10;;;;;;5022832;28;20221;-76
2023/01/29 06:40:24;;;;;;;13.95;8.75;;;1.60;96.40;;;;;;5017598;28;20209;-76
2023/01/29 06:43:10;;;;;;;11.57;9.68;;;1.60;96.40;;;;;;5021710;28;20690;-76
2023/01/29 06:45:57;;;;;;;12.38;9.27;;;1.70;95.90;;;;;;5017398;28;20225;-75
2023/01/29 06:48:43;;;;;;;17.95;10.43;;;1.70;96.40;;;;;;5022041;28;20210;-76
2023/01/29 06:51:29;;;;;;;12.05;9.40;;;1.70;96.60;;;;;;5024187;28;20209;-76
2023/01/29 06:54:14;;;;;;;14.65;10.38;;;1.70;96.90;;;;;;5020844;28;20256;-76
2023/01/29 06:57:00;;;;;;;11.90;9.40;;;1.50;97.40;;;;;;5021461;28;20226;-76
2023/01/29 06:59:47;;;;;;;15.30;11.52;;;1.30;98.10;;;;;;5016381;28;20209;-76
2023/01/29 07:02:33;;;;;;;15.40;10.90;;;1.10;98.50;;;;;;5015468;28;20213;-76
2023/01/29 07:05:18;;;;;;;17.33;13.50;;;0.90;99.70;;;;;;5013784;28;20249;-76
2023/01/29 07:08:04;;;;;;;15.02;11.75;;;0.80;99.10;;;;;;5021150;28;20218;-76
2023/01/29 07:10:50;;;;;;;14.18;11.60;;;0.70;99.30;;;;;;5019226;28;20328;-75
2023/01/29 07:13:36;;;;;;;14.50;11.20;;;0.80;99.70;;;;;;5025591;28;20201;-76
2023/01/29 07:16:25;;;;;;;14.38;12.05;;;0.80;99.90;;;;;;5023399;28;20426;-76
2023/01/29 07:19:10;;;;;;;13.98;10.60;;;1.00;99.70;;;;;;5027310;28;20244;-76
2023/01/29 07:21:56;;;;;;;12.32;9.85;;;1.10;99.30;;;;;;5023451;28;20284;-76
2023/01/29 07:24:42;;;;;;;12.45;10.38;;;1.10;99.00;;;;;;5015297;28;20221;-76
2023/01/29 07:27:28;;;;;;;12.07;10.05;;;1.00;99.50;;;;;;5018033;28;20198;-76
2023/01/29 07:30:14;;;;;;;13.48;10.55;;;1.00;99.70;;;;;;5016485;28;20210;-76
2023/01/29 07:33:04;;;;;;;17.30;14.00;;;1.00;99.30;;;;;;5020454;28;20577;-76
2023/01/29 07:35:49;;;;;;;14.20;10.93;;;1.00;99.60;;;;;;5013904;28;20242;-76
2023/01/29 07:38:35;;;;;;;106.97;46.30;;;0.80;99.90;;;;;;5017033;28;20713;-76
2023/01/29 07:41:21;;;;;;;61.70;31.35;;;0.80;99.90;;;;;;5019165;28;20810;-76
2023/01/29 07:44:07;;;;;;;60.35;30.15;;;0.90;99.90;;;;;;5016351;28;20212;-76
2023/01/29 07:46:53;;;;;;;45.33;23.45;;;0.90;99.90;;;;;;5016405;28;20589;-76
2023/01/29 07:49:40;;;;;;;47.78;24.77;;;1.10;99.90;;;;;;5020225;28;20249;-76
2023/01/29 07:52:25;;;;;;;98.25;44.00;;;1.20;99.90;;;;;;5019887;28;20303;-76
2023/01/29 07:55:11;;;;;;;36.75;20.40;;;1.10;99.90;;;;;;5016277;28;20712;-76
2023/01/29 07:57:58;;;;;;;49.10;26.67;;;1.10;99.90;;;;;;5016633;28;20220;-76
2023/01/29 08:00:43;;;;;;;79.00;37.03;;;1.10;99.90;;;;;;5029009;28;20333;-76
2023/01/29 08:03:29;;;;;;;48.55;28.30;;;1.20;99.90;;;;;;5022810;28;20201;-76
2023/01/29 08:06:16;;;;;;;23.50;15.48;;;1.20;99.90;;;;;;5024911;28;20248;-76
2023/01/29 08:09:02;;;;;;;23.45;12.10;;;1.30;99.90;;;;;;5026764;28;20201;-76
2023/01/29 08:11:48;;;;;;;17.23;12.23;;;1.50;99.50;;;;;;5023278;28;20208;-76
2023/01/29 08:14:34;;;;;;;29.63;13.40;;;1.50;98.70;;;;;;5021539;28;20202;-76
2023/01/29 08:17:19;;;;;;;26.10;16.95;;;1.60;98.70;;;;;;5020441;28;20292;-76
2023/01/29 08:20:07;;;;;;;33.45;18.75;;;1.60;99.00;;;;;;5020699;28;20218;-76
2023/01/29 08:23:01;;;;;;;30.88;17.70;;;1.60;98.80;;;;;;5022910;28;20670;-76
2023/01/29 08:25:46;;;;;;;38.22;20.73;;;1.60;98.90;;;;;;5022257;28;20253;-76
2023/01/29 08:28:33;;;;;;;37.33;20.83;;;1.60;98.00;;;;;;5018873;28;20193;-76
2023/01/29 08:31:20;;;;;;;19.55;13.35;;;1.70;98.10;;;;;;5023880;28;20201;-76
2023/01/29 08:34:06;;;;;;;18.27;12.27;;;1.70;97.90;;;;;;5015942;28;20204;-76
2023/01/29 08:36:52;;;;;;;15.88;10.80;;;1.80;97.40;;;;;;5021625;28;20233;-76
2023/01/29 08:39:38;;;;;;;16.70;10.75;;;1.80;96.10;;;;;;5020958;28;20206;-76
2023/01/29 08:42:24;;;;;;;16.75;11.45;;;1.70;95.60;;;;;;5020298;28;20228;-76
2023/01/29 08:45:11;;;;;;;19.00;11.90;;;1.70;95.00;;;;;;5026443;28;20627;-76
2023/01/29 08:47:56;;;;;;;16.10;12.43;;;1.70;94.90;;;;;;5028134;28;20198;-76
2023/01/29 08:50:42;;;;;;;15.88;12.65;;;1.80;94.90;;;;;;5024258;28;20205;-76
2023/01/29 08:53:28;;;;;;;17.23;12.10;;;1.90;94.20;;;;;;5018432;28;21041;-77
2023/01/29 08:56:16;;;;;;;17.48;12.77;;;1.90;93.80;;;;;;5029918;28;20225;-76
2023/01/29 08:59:01;;;;;;;16.65;12.18;;;2.00;93.60;;;;;;5023565;28;20596;-76
2023/01/29 09:01:47;;;;;;;15.15;11.75;;;2.00;92.70;;;;;;5020232;28;20333;-76
2023/01/29 09:04:33;;;;;;;17.30;11.73;;;2.00;92.00;;;;;;5015411;28;20202;-76
2023/01/29 09:07:20;;;;;;;12.98;10.35;;;2.00;91.60;;;;;;5025517;28;20288;-76
2023/01/29 09:10:08;;;;;;;16.60;10.50;;;2.00;91.00;;;;;;5029812;28;20256;-76
2023/01/29 09:12:55;;;;;;;13.45;10.02;;;2.10;90.50;;;;;;5021388;28;20198;-76
2023/01/29 09:15:41;;;;;;;15.10;10.13;;;1.90;91.10;;;;;;5027405;28;20229;-76
2023/01/29 09:18:28;;;;;;;14.60;11.68;;;2.00;91.00;;;;;;5021055;28;20802;-76
2023/01/29 09:21:14;;;;;;;14.00;10.35;;;2.10;91.80;;;;;;5020427;28;20210;-76
2023/01/29 09:23:59;;;;;;;18.63;11.93;;;2.10;91.10;;;;;;5019231;28;20209;-76
2023/01/29 09:26:45;;;;;;;17.27;11.40;;;2.20;91.30;;;;;;5017735;28;20619;-76
2023/01/29 09:29:32;;;;;;;15.05;10.20;;;2.20;91.40;;;;;;5021951;28;20256;-76
2023/01/29 09:32:17;;;;;;;15.23;8.65;;;2.30;89.90;;;;;;5019332;28;20599;-76
2023/01/29 09:35:03;;;;;;;13.68;10.10;;;2.20;88.50;;;;;;5019973;28;20230;-76
2023/01/29 09:37:50;;;;;;;14.85;10.32;;;2.10;90.10;;;;;;5023812;28;20229;-76
2023/01/29 09:40:43;;;;;;;13.90;9.93;;;2.10;89.00;;;;;;5025991;28;20268;-76
2023/01/29 09:43:42;;;;;;;15.63;9.90;;;2.10;89.30;;;;;;5024131;28;20201;-76
2023/01/29 09:46:38;;;;;;;13.00;9.23;;;2.00;89.00;;;;;;5023635;28;20222;-76
2023/01/29 09:49:28;;;;;;;14.13;11.07;;;2.10;89.90;;;;;;5023854;28;20743;-76
2023/01/29 09:52:18;;;;;;;15.73;10.90;;;2.30;89.50;;;;;;5019951;28;20258;-76
2023/01/29 09:55:09;;;;;;;14.13;10.40;;;2.30;90.10;;;;;;5022660;28;20221;-76
2023/01/29 09:57:58;;;;;;;13.50;9.60;;;2.40;90.00;;;;;;5028139;28;20230;-76
2023/01/29 10:00:51;;;;;;;12.43;9.73;;;2.40;90.00;;;;;;5023440;28;20202;-75
2023/01/29 10:04:16;;;;;;;12.75;9.40;;;2.60;88.60;;;;;;5024263;28;20216;-75
2023/01/29 10:07:17;;;;;;;11.98;9.70;;;2.50;88.50;;;;;;5026028;28;20253;-76
2023/01/29 10:10:30;;;;;;;13.30;10.73;;;2.50;89.10;;;;;;5025858;28;20201;-76
2023/01/29 10:13:25;;;;;;;20.77;10.27;;;2.50;87.50;;;;;;5022887;28;20215;-75
2023/01/29 10:16:28;;;;;;;14.63;9.95;;;2.60;87.30;;;;;;5027342;28;20632;-76
2023/01/29 10:19:41;;;;;;;15.05;10.52;;;2.70;86.00;;;;;;5027728;28;20233;-77
2023/01/29 10:22:43;;;;;;;12.32;8.85;;;2.70;86.00;;;;;;5023608;28;20210;-75
2023/01/29 10:25:30;;;;;;;12.13;9.13;;;2.60;86.00;;;;;;5026094;28;20221;-74
2023/01/29 10:28:18;;;;;;;9.90;8.52;;;2.70;85.20;;;;;;5024439;28;20301;-76
2023/01/29 10:31:08;;;;;;;10.13;8.10;;;2.70;84.90;;;;;;5018457;28;20244;-76
2023/01/29 10:33:57;;;;;;;12.80;9.60;;;2.80;84.50;;;;;;5023961;28;20332;-76
2023/01/29 10:36:45;;;;;;;22.42;10.45;;;2.80;83.00;;;;;;5030010;28;20228;-76
2023/01/29 10:39:33;;;;;;;13.13;9.73;;;2.80;82.40;;;;;;5028043;28;20290;-76
2023/01/29 10:42:30;;;;;;;11.35;9.18;;;2.80;82.90;;;;;;5024496;28;20678;-77
2023/01/29 10:45:26;;;;;;;15.52;9.60;;;2.90;82.50;;;;;;5025501;28;20588;-76
2023/01/29 10:48:44;;;;;;;14.18;10.13;;;2.90;82.90;;;;;;5029555;28;20379;-76
2023/01/29 10:51:46;;;;;;;12.80;9.40;;;2.80;84.50;;;;;;5028212;28;20205;-76
2023/01/29 10:54:47;;;;;;;16.80;10.80;;;2.80;83.90;;;;;;5022277;28;20324;-76
2023/01/29 10:57:49;;;;;;;10.80;8.65;;;2.80;83.80;;;;;;5026067;28;20313;-76
2023/01/29 11:00:38;;;;;;;12.90;10.43;;;2.80;85.60;;;;;;5024637;28;20718;-76
2023/01/29 11:03:26;;;;;;;12.43;8.70;;;2.90;83.70;;;;;;5019501;28;20206;-76
2023/01/29 11:06:17;;;;;;;10.93;8.50;;;2.90;83.60;;;;;;5029002;28;20222;-76
2023/01/29 11:09:09;;;;;;;15.70;10.43;;;2.90;82.20;;;;;;5022784;28;20202;-75
2023/01/29 11:12:00;;;;;;;13.07;9.63;;;3.00;82.80;;;;;;5012270;28;20235;-76
2023/01/29 11:14:51;;;;;;;15.95;11.43;;;3.00;81.40;;;;;;5023462;28;20205;-76
2023/01/29 11:17:37;;;;;;;15.10;10.02;;;3.00;82.60;;;;;;5021259;28;20224;-76
2023/01/29 11:20:27;;;;;;;14.27;9.70;;;3.20;80.50;;;;;;5027160;28;20205;-76
2023/01/29 11:23:27;;;;;;;15.60;11.07;;;3.20;80.90;;;;;;5021792;28;20205;-77
2023/01/29 11:26:16;;;;;;;14.48;10.52;;;3.10;82.60;;;;;;5023484;28;20315;-77
2023/01/29 11:29:03;;;;;;;17.20;10.90;;;3.10;80.40;;;;;;5029793;28;20197;-76
2023/01/29 11:31:49;;;;;;;14.63;10.23;;;3.20;80.30;;;;;;5026397;28;20249;-75
2023/01/29 11:34:34;;;;;;;15.85;11.32;;;3.00;81.40;;;;;;5026897;28;20256;-76
2023/01/29 11:37:20;;;;;;;14.98;11.60;;;2.90;82.50;;;;;;5060362;22;20232;-70
2023/01/29 11:40:38;;;;;;;21.35;13.18;;;3.00;81.30;;;;;;5049023;28;20224;-71
2023/01/29 11:43:30;;;;;;;20.40;12.98;;;3.00;80.50;;;;;;5040094;28;20210;-71
2023/01/29 11:46:17;;;;;;;17.40;12.20;;;3.00;81.30;;;;;;5043984;28;20228;-71
2023/01/29 11:49:03;;;;;;;15.40;12.10;;;3.00;82.60;;;;;;5048419;28;20195;-72
2023/01/29 11:51:53;;;;;;;18.13;12.25;;;3.20;82.60;;;;;;5053772;28;20205;-73
2023/01/29 11:54:45;;;;;;;19.60;13.85;;;3.30;80.50;;;;;;5049326;28;20335;-72
2023/01/29 11:57:33;;;;;;;21.17;13.50;;;3.40;80.40;;;;;;5046102;28;20221;-72
2023/01/29 12:00:23;;;;;;;25.27;15.50;;;3.40;76.90;;;;;;5043654;28;20217;-72
2023/01/29 12:03:17;;;;;;;24.23;13.82;;;3.10;76.70;;;;;;5035319;28;20204;-72
2023/01/29 12:06:06;;;;;;;29.73;17.52;;;3.10;81.00;;;;;;5044374;28;20706;-72
2023/01/29 12:08:57;;;;;;;20.35;12.65;;;3.00;80.60;;;;;;5043366;28;20197;-73
2023/01/29 12:11:43;;;;;;;17.42;11.15;;;3.00;78.00;;;;;;5040829;28;20209;-73
2023/01/29 12:14:32;;;;;;;21.02;13.57;;;3.10;78.70;;;;;;5047661;28;20252;-72
2023/01/29 12:17:25;;;;;;;19.80;13.18;;;2.90;77.10;;;;;;5048812;28;20228;-72
2023/01/29 12:20:16;;;;;;;21.30;12.73;;;3.10;78.80;;;;;;5055187;28;20362;-73
2023/01/29 12:23:11;;;;;;;19.30;14.00;;;3.20;77.30;;;;;;5037315;28;20230;-73
2023/01/29 12:26:04;;;;;;;19.75;13.25;;;3.10;77.60;;;;;;5053575;28;20228;-72
2023/01/29 12:28:59;;;;;;;24.90;17.15;;;3.20;77.00;;;;;;5048677;28;20196;-72
2023/01/29 12:31:52;;;;;;;21.52;15.40;;;3.10;78.20;;;;;;5042193;28;20213;-72
2023/01/29 12:34:45;;;;;;;21.13;16.17;;;3.20;78.30;;;;;;5049647;28;20209;-73
2023/01/29 12:37:40;;;;;;;19.02;14.30;;;3.20;79.20;;;;;;5047142;28;20615;-73
2023/01/29 12:40:31;;;;;;;22.52;15.68;;;3.40;78.90;;;;;;5046597;28;20235;-72
2023/01/29 12:43:19;;;;;;;23.83;15.70;;;3.60;79.20;;;;;;5047148;28;20208;-72
2023/01/29 12:46:08;;;;;;;22.73;15.43;;;3.70;77.00;;;;;;5053330;28;20243;-72
2023/01/29 12:48:57;;;;;;;21.98;14.77;;;3.60;74.80;;;;;;5051454;28;20215;-72
2023/01/29 12:51:49;;;;;;;24.40;15.00;;;3.60;75.50;;;;;;5047327;28;20335;-72
2023/01/29 12:54:41;;;;;;;22.73;15.50;;;3.50;73.90;;;;;;5050981;28;20756;-72
2023/01/29 12:57:34;;;;;;;24.20;16.45;;;3.60;74.60;;;;;;5050205;28;20598;-72
2023/01/29 13:00:22;;;;;;;21.48;16.10;;;3.70;74.20;;;;;;5049753;28;20294;-72
2023/01/29 13:03:17;;;;;;;21.75;14.88;;;3.70;72.90;;;;;;5040762;28;20236;-72
2023/01/29 13:06:08;;;;;;;23.52;15.90;;;3.80;73.30;;;;;;5050857;28;20311;-72
2023/01/29 13:08:57;;;;;;;20.83;14.63;;;3.90;73.20;;;;;;5043433;28;20201;-73
2023/01/29 13:11:51;;;;;;;20.48;14.85;;;4.00;70.10;;;;;;5049832;28;20209;-73
2023/01/29 13:14:44;;;;;;;24.55;14.65;;;4.00;70.50;;;;;;5057071;28;20323;-73
2023/01/29 13:17:36;;;;;;;21.75;15.63;;;4.00;70.70;;;;;;5054745;28;20220;-73
2023/01/29 13:20:26;;;;;;;25.17;15.05;;;3.90;68.90;;;;;;5041567;28;20221;-73
2023/01/29 13:23:20;;;;;;;23.73;16.25;;;3.80;68.40;;;;;;5047853;28;20758;-73
2023/01/29 13:26:06;;;;;;;28.40;14.80;;;3.90;69.50;;;;;;5036913;28;20581;-74
2023/01/29 13:28:55;;;;;;;20.77;14.55;;;4.20;70.50;;;;;;5040858;28;20329;-73
2023/01/29 13:31:45;;;;;;;24.63;15.52;;;4.40;67.80;;;;;;5042276;28;20351;-72
2023/01/29 13:34:32;;;;;;;25.08;16.05;;;4.60;66.00;;;;;;5038805;28;20295;-72
2023/01/29 13:37:27;;;;;;;40.47;15.45;;;4.90;64.50;;;;;;5049036;28;20274;-72
2023/01/29 13:40:22;;;;;;;41.92;23.60;;;5.20;62.90;;;;;;5033910;28;20645;-73
2023/01/29 13:43:20;;;;;;;23.77;16.15;;;5.70;60.80;;;;;;5044914;28;20200;-73
2023/01/29 13:46:12;;;;;;;25.00;16.95;;;5.70;55.80;;;;;;5037875;28;20355;-73
2023/01/29 13:49:03;;;;;;;25.00;16.48;;;5.40;55.00;;;;;;5044853;28;20691;-73
2023/01/29 13:51:49;;;;;;;25.77;14.82;;;5.20;55.80;;;;;;5052437;28;20204;-74
2023/01/29 13:54:34;;;;;;;28.90;15.35;;;4.90;57.40;;;;;;5043451;28;20217;-73
2023/01/29 13:57:51;;;;;;;24.33;15.48;;;4.60;58.70;;;;;;5045537;28;20229;-73
2023/01/29 14:00:59;;;;;;;24.02;16.33;;;4.40;60.80;;;;;;5043038;28;20593;-73
2023/01/29 14:03:55;;;;;;;25.15;15.73;;;4.30;60.40;;;;;;5039876;28;20585;-73
2023/01/29 14:06:49;;;;;;;24.35;16.48;;;4.20;61.60;;;;;;5043748;28;20225;-73
2023/01/29 14:10:04;;;;;;;25.52;16.08;;;4.10;61.70;;;;;;5034765;28;20335;-73
2023/01/29 14:12:54;;;;;;;21.63;15.13;;;4.10;62.90;;;;;;5043033;28;20565;-73
2023/01/29 14:15:40;;;;;;;22.52;16.00;;;4.00;62.80;;;;;;5039279;28;20349;-73
2023/01/29 14:18:27;;;;;;;24.20;15.60;;;3.80;63.10;;;;;;5046416;28;20629;-73
2023/01/29 14:21:24;;;;;;;23.42;16.45;;;3.80;65.60;;;;;;5048995;28;20285;-74
2023/01/29 14:24:16;;;;;;;25.92;16.20;;;3.70;66.80;;;;;;5039667;28;20201;-73
2023/01/29 14:27:02;;;;;;;22.80;14.32;;;3.70;66.70;;;;;;5041813;28;20226;-73
2023/01/29 14:29:50;;;;;;;27.27;16.17;;;3.80;66.40;;;;;;5043346;28;20331;-73
2023/01/29 14:32:40;;;;;;;24.05;15.68;;;3.70;66.40;;;;;;5042935;28;20200;-73
2023/01/29 14:35:29;;;;;;;23.98;15.88;;;3.30;67.30;;;;;;5035667;28;20567;-73
2023/01/29 14:38:16;;;;;;;23.27;15.90;;;3.30;66.90;;;;;;5043107;28;20205;-73
2023/01/29 14:41:14;;;;;;;22.70;16.55;;;3.30;67.90;;;;;;5038541;28;20225;-73
2023/01/29 14:44:37;;;;;;;28.52;14.70;;;3.20;68.20;;;;;;5038105;28;20345;-72
2023/01/29 14:48:00;;;;;;;25.67;15.77;;;3.10;69.60;;;;;;5041859;28;20608;-73
2023/01/29 14:50:56;;;;;;;28.60;17.95;;;2.90;70.40;;;;;;5041366;28;20565;-73
2023/01/29 14:53:54;;;;;;;30.15;15.85;;;2.90;72.20;;;;;;5043047;28;20208;-74
2023/01/29 14:56:45;;;;;;;24.83;16.00;;;3.00;72.00;;;;;;5044252;28;20302;-73
2023/01/29 14:59:36;;;;;;;24.80;14.80;;;3.00;72.50;;;;;;5042916;28;20213;-72
2023/01/29 15:02:26;;;;;;;27.20;16.13;;;2.90;73.90;;;;;;5039260;28;20686;-73